createdAt,value
2017-04-14T00:00:27.905Z,1010.78
2017-04-14T00:01:08.454Z,1010.78
2017-04-14T00:01:48.975Z,1010.75
2017-04-14T00:02:29.522Z,1010.75
2017-04-14T00:03:10.060Z,1010.73
2017-04-14T00:03:50.607Z,1010.73
2017-04-14T00:04:31.138Z,1010.75
2017-04-14T00:05:11.667Z,1010.75
2017-04-14T00:05:52.202Z,1010.75
2017-04-14T00:06:32.733Z,1010.75
2017-04-14T00:07:13.259Z,1010.79
2017-04-14T00:07:53.778Z,1010.78
2017-04-14T00:08:34.297Z,1010.8
2017-04-14T00:09:14.826Z,1010.78
2017-04-14T00:09:55.365Z,1010.79
2017-04-14T00:10:35.882Z,1010.81
2017-04-14T00:11:16.398Z,1010.77
2017-04-14T00:11:56.932Z,1010.75
2017-04-14T00:12:37.453Z,1010.77
2017-04-14T00:13:17.977Z,1010.76
2017-04-14T00:13:58.513Z,1010.76
2017-04-14T00:14:39.047Z,1010.76
2017-04-14T00:15:19.587Z,1010.77
2017-04-14T00:16:00.104Z,1010.76
2017-04-14T00:16:40.696Z,1010.78
2017-04-14T00:17:21.216Z,1010.73
2017-04-14T00:18:01.737Z,1010.75
2017-04-14T00:18:42.327Z,1010.76
2017-04-14T00:19:22.809Z,1010.74
2017-04-14T00:20:03.338Z,1010.72
2017-04-14T00:20:43.879Z,1010.71
2017-04-14T00:21:24.422Z,1010.75
2017-04-14T00:22:04.999Z,1010.69
2017-04-14T00:22:45.481Z,1010.68
2017-04-14T00:23:26.004Z,1010.66
2017-04-14T00:24:06.528Z,1010.65
2017-04-14T00:24:47.065Z,1010.65
2017-04-14T00:25:27.590Z,1010.64
2017-04-14T00:26:08.121Z,1010.68
2017-04-14T00:26:48.636Z,1010.67
2017-04-14T00:27:29.164Z,1010.66
2017-04-14T00:28:09.686Z,1010.66
2017-04-14T00:28:50.215Z,1010.68
2017-04-14T00:29:32.267Z,1010.69
2017-04-14T00:30:12.791Z,1010.61
2017-04-14T00:30:53.302Z,1010.67
2017-04-14T00:31:33.833Z,1010.62
2017-04-14T00:32:14.359Z,1010.6
2017-04-14T00:32:54.881Z,1010.63
2017-04-14T00:33:35.417Z,1010.63
2017-04-14T00:34:15.948Z,1010.62
2017-04-14T00:34:56.482Z,1010.6
2017-04-14T00:35:37.015Z,1010.64
2017-04-14T00:36:17.548Z,1010.62
2017-04-14T00:36:58.073Z,1010.59
2017-04-14T00:37:38.600Z,1010.61
2017-04-14T00:38:19.129Z,1010.61
2017-04-14T00:38:59.653Z,1010.56
2017-04-14T00:39:40.209Z,1010.58
2017-04-14T00:40:20.732Z,1010.6
2017-04-14T00:41:01.263Z,1010.6
2017-04-14T00:41:41.794Z,1010.6
2017-04-14T00:42:22.318Z,1010.59
2017-04-14T00:43:02.864Z,1010.6
2017-04-14T00:43:43.384Z,1010.61
2017-04-14T00:44:23.899Z,1010.59
2017-04-14T00:45:04.445Z,1010.59
2017-04-14T00:45:44.980Z,1010.56
2017-04-14T00:46:25.493Z,1010.56
2017-04-14T00:47:06.012Z,1010.58
2017-04-14T00:47:46.533Z,1010.58
2017-04-14T00:48:27.073Z,1010.54
2017-04-14T00:49:07.650Z,1010.54
2017-04-14T00:49:48.175Z,1010.52
2017-04-14T00:50:28.722Z,1010.52
2017-04-14T00:51:09.256Z,1010.51
2017-04-14T00:51:49.764Z,1010.51
2017-04-14T00:52:30.297Z,1010.51
2017-04-14T00:53:10.843Z,1010.52
2017-04-14T00:53:51.384Z,1010.51
2017-04-14T00:54:31.926Z,1010.49
2017-04-14T00:55:12.445Z,1010.51
2017-04-14T00:55:52.992Z,1010.49
2017-04-14T00:56:33.523Z,1010.52
2017-04-14T00:57:14.055Z,1010.53
2017-04-14T00:57:54.573Z,1010.54
2017-04-14T00:58:35.079Z,1010.55
2017-04-14T00:59:15.605Z,1010.53
2017-04-14T00:59:56.136Z,1010.54
2017-04-14T01:00:36.658Z,1010.55
2017-04-14T01:01:17.182Z,1010.54
2017-04-14T01:01:57.714Z,1010.54
2017-04-14T01:02:38.256Z,1010.52
2017-04-14T01:03:18.787Z,1010.54
2017-04-14T01:03:59.325Z,1010.52
2017-04-14T01:04:39.867Z,1010.53
2017-04-14T01:05:20.380Z,1010.56
2017-04-14T01:06:00.911Z,1010.54
2017-04-14T01:06:41.457Z,1010.51
2017-04-14T01:07:21.989Z,1010.54
2017-04-14T01:08:02.525Z,1010.52
2017-04-14T01:08:43.041Z,1010.51
2017-04-14T01:09:23.576Z,1010.5
2017-04-14T01:10:04.110Z,1010.53
2017-04-14T01:10:44.658Z,1010.49
2017-04-14T01:11:25.195Z,1010.47
2017-04-14T01:12:05.734Z,1010.48
2017-04-14T01:12:46.245Z,1010.51
2017-04-14T01:13:26.780Z,1010.53
2017-04-14T01:14:07.318Z,1010.52
2017-04-14T01:14:47.849Z,1010.53
2017-04-14T01:15:28.387Z,1010.53
2017-04-14T01:16:08.893Z,1010.55
2017-04-14T01:16:49.406Z,1010.55
2017-04-14T01:17:29.981Z,1010.54
2017-04-14T01:18:10.514Z,1010.56
2017-04-14T01:18:51.063Z,1010.51
2017-04-14T01:19:31.594Z,1010.54
2017-04-14T01:20:12.107Z,1010.57
2017-04-14T01:20:52.622Z,1010.54
2017-04-14T01:21:33.153Z,1010.56
2017-04-14T01:22:13.693Z,1010.57
2017-04-14T01:22:54.206Z,1010.64
2017-04-14T01:23:34.728Z,1010.57
2017-04-14T01:24:15.269Z,1010.56
2017-04-14T01:24:55.789Z,1010.6
2017-04-14T01:25:36.298Z,1010.61
2017-04-14T01:26:16.821Z,1010.58
2017-04-14T01:26:57.368Z,1010.61
2017-04-14T01:27:37.912Z,1010.59
2017-04-14T01:28:18.449Z,1010.59
2017-04-14T01:28:58.975Z,1010.61
2017-04-14T01:29:39.490Z,1010.61
2017-04-14T01:30:20.022Z,1010.59
2017-04-14T01:31:00.565Z,1010.61
2017-04-14T01:31:41.091Z,1010.58
2017-04-14T01:32:21.631Z,1010.56
2017-04-14T01:33:02.145Z,1010.58
2017-04-14T01:33:42.672Z,1010.61
2017-04-14T01:34:23.202Z,1010.62
2017-04-14T01:35:03.724Z,1010.64
2017-04-14T01:35:44.248Z,1010.61
2017-04-14T01:36:24.794Z,1010.64
2017-04-14T01:37:05.363Z,1010.63
2017-04-14T01:37:45.895Z,1010.63
2017-04-14T01:38:26.422Z,1010.64
2017-04-14T01:39:06.959Z,1010.64
2017-04-14T01:39:47.491Z,1010.68
2017-04-14T01:40:28.013Z,1010.67
2017-04-14T01:41:08.537Z,1010.67
2017-04-14T01:41:49.074Z,1010.67
2017-04-14T01:42:29.616Z,1010.72
2017-04-14T01:43:10.153Z,1010.68
2017-04-14T01:43:50.669Z,1010.7
2017-04-14T01:44:31.200Z,1010.69
2017-04-14T01:45:11.726Z,1010.69
2017-04-14T01:45:52.296Z,1010.7
2017-04-14T01:46:32.864Z,1010.69
2017-04-14T01:47:13.378Z,1010.69
2017-04-14T01:47:53.915Z,1010.7
2017-04-14T01:48:34.447Z,1010.69
2017-04-14T01:49:14.969Z,1010.71
2017-04-14T01:49:55.483Z,1010.66
2017-04-14T01:50:36.027Z,1010.7
2017-04-14T01:51:16.549Z,1010.71
2017-04-14T01:51:57.104Z,1010.7
2017-04-14T01:52:37.627Z,1010.7
2017-04-14T01:53:18.154Z,1010.71
2017-04-14T01:53:58.685Z,1010.71
2017-04-14T01:54:39.209Z,1010.69
2017-04-14T01:55:19.735Z,1010.7
2017-04-14T01:56:00.277Z,1010.71
2017-04-14T01:56:40.804Z,1010.71
2017-04-14T01:57:21.325Z,1010.75
2017-04-14T01:58:01.859Z,1010.71
2017-04-14T01:58:42.382Z,1010.72
2017-04-14T01:59:22.908Z,1010.75
2017-04-14T02:00:03.439Z,1010.73
2017-04-14T02:00:43.992Z,1010.74
2017-04-14T02:01:24.537Z,1010.73
2017-04-14T02:02:05.072Z,1010.72
2017-04-14T02:02:45.611Z,1010.75
2017-04-14T02:03:26.145Z,1010.74
2017-04-14T02:04:06.677Z,1010.74
2017-04-14T02:04:47.256Z,1010.73
2017-04-14T02:05:27.774Z,1010.74
2017-04-14T02:06:08.303Z,1010.71
2017-04-14T02:06:48.815Z,1010.74
2017-04-14T02:07:29.332Z,1010.72
2017-04-14T02:08:09.862Z,1010.73
2017-04-14T02:08:50.393Z,1010.73
2017-04-14T02:09:30.933Z,1010.7
2017-04-14T02:10:11.467Z,1010.71
2017-04-14T02:10:52.022Z,1010.72
2017-04-14T02:11:32.552Z,1010.7
2017-04-14T02:12:13.087Z,1010.7
2017-04-14T02:12:53.615Z,1010.68
2017-04-14T02:13:34.247Z,1010.72
2017-04-14T02:14:14.782Z,1010.69
2017-04-14T02:14:55.326Z,1010.69
2017-04-14T02:15:35.843Z,1010.69
2017-04-14T02:16:16.362Z,1010.69
2017-04-14T02:16:56.883Z,1010.69
2017-04-14T02:17:37.427Z,1010.69
2017-04-14T02:18:17.939Z,1010.7
2017-04-14T02:18:58.456Z,1010.7
2017-04-14T02:19:38.983Z,1010.73
2017-04-14T02:20:19.504Z,1010.71
2017-04-14T02:21:00.034Z,1010.77
2017-04-14T02:21:40.567Z,1010.78
2017-04-14T02:22:21.107Z,1010.72
2017-04-14T02:23:01.647Z,1010.74
2017-04-14T02:23:42.179Z,1010.78
2017-04-14T02:24:22.696Z,1010.82
2017-04-14T02:25:03.218Z,1010.78
2017-04-14T02:25:43.748Z,1010.78
2017-04-14T02:26:24.275Z,1010.78
2017-04-14T02:27:04.797Z,1010.78
2017-04-14T02:27:45.320Z,1010.82
2017-04-14T02:28:25.846Z,1010.74
2017-04-14T02:29:06.384Z,1010.81
2017-04-14T02:29:46.902Z,1010.8
2017-04-14T02:30:27.436Z,1010.83
2017-04-14T02:31:07.958Z,1010.85
2017-04-14T02:31:48.546Z,1010.84
2017-04-14T02:32:29.006Z,1010.85
2017-04-14T02:33:09.529Z,1010.87
2017-04-14T02:33:50.045Z,1010.86
2017-04-14T02:34:30.578Z,1010.86
2017-04-14T02:35:11.122Z,1010.88
2017-04-14T02:35:51.635Z,1010.87
2017-04-14T02:36:32.170Z,1010.86
2017-04-14T02:37:12.706Z,1010.89
2017-04-14T02:37:53.240Z,1010.9
2017-04-14T02:38:33.784Z,1010.9
2017-04-14T02:39:14.303Z,1010.9
2017-04-14T02:39:54.824Z,1010.89
2017-04-14T02:40:35.363Z,1010.88
2017-04-14T02:41:15.887Z,1010.88
2017-04-14T02:41:56.405Z,1010.9
2017-04-14T02:42:36.932Z,1010.87
2017-04-14T02:43:17.463Z,1010.87
2017-04-14T02:43:58.002Z,1010.88
2017-04-14T02:44:38.547Z,1010.92
2017-04-14T02:45:19.091Z,1010.87
2017-04-14T02:45:59.625Z,1010.88
2017-04-14T02:46:40.149Z,1010.89
2017-04-14T02:47:20.679Z,1010.91
2017-04-14T02:48:01.205Z,1010.91
2017-04-14T02:48:41.747Z,1010.93
2017-04-14T02:49:22.293Z,1010.97
2017-04-14T02:50:02.817Z,1010.97
2017-04-14T02:50:43.350Z,1010.96
2017-04-14T02:51:23.874Z,1010.98
2017-04-14T02:52:04.409Z,1010.97
2017-04-14T02:52:44.943Z,1010.98
2017-04-14T02:53:25.468Z,1010.99
2017-04-14T02:54:06.002Z,1011
2017-04-14T02:54:46.521Z,1011
2017-04-14T02:55:27.053Z,1010.97
2017-04-14T02:56:07.596Z,1011
2017-04-14T02:56:48.117Z,1010.97
2017-04-14T02:57:28.634Z,1011.01
2017-04-14T02:58:09.166Z,1011.01
2017-04-14T02:58:49.698Z,1010.98
2017-04-14T02:59:30.220Z,1011.01
2017-04-14T03:00:10.745Z,1011.02
2017-04-14T03:00:51.252Z,1011.01
2017-04-14T03:01:31.790Z,1011
2017-04-14T03:02:12.309Z,1011
2017-04-14T03:02:52.838Z,1011.02
2017-04-14T03:03:33.369Z,1011.01
2017-04-14T03:04:13.918Z,1011
2017-04-14T03:04:54.464Z,1011.01
2017-04-14T03:05:35.006Z,1011.02
2017-04-14T03:06:15.536Z,1011.02
2017-04-14T03:06:56.059Z,1011.04
2017-04-14T03:07:36.602Z,1011.04
2017-04-14T03:08:17.131Z,1011.07
2017-04-14T03:08:57.651Z,1011.05
2017-04-14T03:09:38.178Z,1011.04
2017-04-14T03:10:18.702Z,1011.08
2017-04-14T03:10:59.226Z,1011.07
2017-04-14T03:11:39.752Z,1011.06
2017-04-14T03:12:20.278Z,1011.08
2017-04-14T03:13:00.806Z,1011.07
2017-04-14T03:13:41.343Z,1011.07
2017-04-14T03:14:21.873Z,1011.05
2017-04-14T03:15:02.404Z,1011.06
2017-04-14T03:15:42.927Z,1011.06
2017-04-14T03:16:23.461Z,1011.07
2017-04-14T03:17:03.994Z,1011.05
2017-04-14T03:17:44.535Z,1011.04
2017-04-14T03:18:25.060Z,1011.07
2017-04-14T03:19:05.580Z,1011.03
2017-04-14T03:19:46.115Z,1011.08
2017-04-14T03:20:26.656Z,1011.06
2017-04-14T03:21:07.189Z,1011.07
2017-04-14T03:21:47.721Z,1011.05
2017-04-14T03:22:28.258Z,1011.08
2017-04-14T03:23:08.788Z,1011.07
2017-04-14T03:23:49.334Z,1011.06
2017-04-14T03:24:29.850Z,1011.04
2017-04-14T03:25:10.383Z,1011.1
2017-04-14T03:25:50.920Z,1011.09
2017-04-14T03:26:31.424Z,1011.06
2017-04-14T03:27:11.951Z,1011.05
2017-04-14T03:27:52.469Z,1011.05
2017-04-14T03:28:32.994Z,1011.04
2017-04-14T03:29:13.530Z,1011.06
2017-04-14T03:29:54.055Z,1011.06
2017-04-14T03:30:34.575Z,1011.08
2017-04-14T03:31:15.150Z,1011.07
2017-04-14T03:31:55.743Z,1011.07
2017-04-14T03:32:36.272Z,1011.05
2017-04-14T03:33:16.838Z,1011.09
2017-04-14T03:33:57.538Z,1011.03
2017-04-14T03:34:38.092Z,1011.04
2017-04-14T03:35:18.647Z,1011.03
2017-04-14T03:35:59.201Z,1011.02
2017-04-14T03:36:39.765Z,1011.07
2017-04-14T03:37:20.307Z,1011.04
2017-04-14T03:38:00.833Z,1011.03
2017-04-14T03:38:41.422Z,1011.05
2017-04-14T03:39:21.971Z,1011.06
2017-04-14T03:40:02.555Z,1011.07
2017-04-14T03:40:43.072Z,1011.04
2017-04-14T03:41:23.614Z,1011.03
2017-04-14T03:42:04.138Z,1011.03
2017-04-14T03:42:44.717Z,1011.06
2017-04-14T03:43:25.306Z,1011.08
2017-04-14T03:44:05.858Z,1011.12
2017-04-14T03:44:46.356Z,1011.12
2017-04-14T03:45:26.895Z,1011.13
2017-04-14T03:46:07.430Z,1011.14
2017-04-14T03:46:47.963Z,1011.15
2017-04-14T03:47:28.516Z,1011.12
2017-04-14T03:48:09.099Z,1011.07
2017-04-14T03:48:49.640Z,1011.15
2017-04-14T03:49:30.191Z,1011.09
2017-04-14T03:50:10.743Z,1011.15
2017-04-14T03:50:51.308Z,1011.12
2017-04-14T03:51:31.862Z,1011.14
2017-04-14T03:52:12.415Z,1011.13
2017-04-14T03:52:53.003Z,1011.13
2017-04-14T03:53:33.536Z,1011.12
2017-04-14T03:54:14.131Z,1011.13
2017-04-14T03:54:54.731Z,1011.14
2017-04-14T03:55:35.283Z,1011.14
2017-04-14T03:56:15.833Z,1011.14
2017-04-14T03:56:56.359Z,1011.16
2017-04-14T03:57:36.914Z,1011.15
2017-04-14T03:58:17.495Z,1011.15
2017-04-14T03:58:57.970Z,1011.12
2017-04-14T04:01:03.201Z,1011.16
2017-04-14T04:01:45.972Z,1011.13
2017-04-14T04:02:29.364Z,1011.11
2017-04-14T04:03:09.881Z,1011.16
2017-04-14T04:03:50.405Z,1011.11
2017-04-14T04:04:30.937Z,1011.1
2017-04-14T04:05:11.470Z,1011.12
2017-04-14T04:05:51.995Z,1011.1
2017-04-14T04:06:32.514Z,1011.09
2017-04-14T04:07:13.049Z,1011.1
2017-04-14T04:07:53.585Z,1011.12
2017-04-14T04:08:34.113Z,1011.13
2017-04-14T04:09:14.636Z,1011.12
2017-04-14T04:09:55.166Z,1011.07
2017-04-14T04:10:35.674Z,1011.09
2017-04-14T04:11:16.184Z,1011.13
2017-04-14T04:11:56.709Z,1011.13
2017-04-14T04:12:37.243Z,1011.12
2017-04-14T04:13:17.768Z,1011.13
2017-04-14T04:13:58.288Z,1011.12
2017-04-14T04:14:38.803Z,1011.11
2017-04-14T04:15:19.326Z,1011.1
2017-04-14T04:15:59.839Z,1011.16
2017-04-14T04:16:40.344Z,1011.11
2017-04-14T04:17:20.879Z,1011.12
2017-04-14T04:18:01.417Z,1011.13
2017-04-14T04:18:41.925Z,1011.14
2017-04-14T04:19:22.442Z,1011.13
2017-04-14T04:20:02.975Z,1011.14
2017-04-14T04:20:43.472Z,1011.13
2017-04-14T04:21:24.009Z,1011.11
2017-04-14T04:22:04.541Z,1011.13
2017-04-14T04:22:45.070Z,1011.17
2017-04-14T04:23:25.588Z,1011.18
2017-04-14T04:24:06.117Z,1011.14
2017-04-14T04:24:46.655Z,1011.19
2017-04-14T04:25:27.211Z,1011.17
2017-04-14T04:26:07.735Z,1011.17
2017-04-14T04:26:48.259Z,1011.16
2017-04-14T04:27:28.791Z,1011.22
2017-04-14T04:28:09.305Z,1011.18
2017-04-14T04:28:49.850Z,1011.19
2017-04-14T04:29:30.379Z,1011.14
2017-04-14T04:30:10.922Z,1011.16
2017-04-14T04:30:51.426Z,1011.17
2017-04-14T04:31:31.974Z,1011.15
2017-04-14T04:32:12.501Z,1011.14
2017-04-14T04:32:53.023Z,1011.1
2017-04-14T04:33:33.551Z,1011.16
2017-04-14T04:34:14.056Z,1011.12
2017-04-14T04:34:54.598Z,1011.13
2017-04-14T04:35:35.155Z,1011.15
2017-04-14T04:36:15.676Z,1011.16
2017-04-14T04:36:56.209Z,1011.17
2017-04-14T04:37:36.725Z,1011.19
2017-04-14T04:38:17.261Z,1011.18
2017-04-14T04:38:57.795Z,1011.16
2017-04-14T04:39:38.317Z,1011.17
2017-04-14T04:40:18.845Z,1011.17
2017-04-14T04:40:59.370Z,1011.18
2017-04-14T04:41:39.898Z,1011.14
2017-04-14T04:42:20.441Z,1011.19
2017-04-14T04:43:00.951Z,1011.22
2017-04-14T04:43:41.465Z,1011.23
2017-04-14T04:44:21.996Z,1011.25
2017-04-14T04:45:02.525Z,1011.26
2017-04-14T04:45:43.055Z,1011.25
2017-04-14T04:46:23.553Z,1011.24
2017-04-14T04:47:04.074Z,1011.28
2017-04-14T04:47:44.598Z,1011.26
2017-04-14T04:48:25.174Z,1011.29
2017-04-14T04:49:05.664Z,1011.28
2017-04-14T04:49:46.214Z,1011.28
2017-04-14T04:50:26.747Z,1011.29
2017-04-14T04:51:07.276Z,1011.28
2017-04-14T04:51:47.803Z,1011.27
2017-04-14T04:52:28.333Z,1011.29
2017-04-14T04:53:08.869Z,1011.28
2017-04-14T04:53:49.415Z,1011.3
2017-04-14T04:54:29.971Z,1011.27
2017-04-14T04:55:11.082Z,1011.33
2017-04-14T04:55:51.741Z,1011.32
2017-04-14T04:56:32.260Z,1011.28
2017-04-14T04:57:12.784Z,1011.32
2017-04-14T04:57:53.331Z,1011.31
2017-04-14T04:58:33.905Z,1011.33
2017-04-14T04:59:14.573Z,1011.32
2017-04-14T04:59:55.094Z,1011.36
2017-04-14T05:00:35.618Z,1011.32
2017-04-14T05:01:16.165Z,1011.35
2017-04-14T05:01:56.696Z,1011.33
2017-04-14T05:02:37.204Z,1011.35
2017-04-14T05:03:17.738Z,1011.35
2017-04-14T05:03:58.296Z,1011.33
2017-04-14T05:04:38.844Z,1011.34
2017-04-14T05:05:19.361Z,1011.36
2017-04-14T05:05:59.879Z,1011.37
2017-04-14T05:06:40.408Z,1011.35
2017-04-14T05:07:20.935Z,1011.37
2017-04-14T05:08:01.476Z,1011.39
2017-04-14T05:08:42.015Z,1011.41
2017-04-14T05:09:22.534Z,1011.37
2017-04-14T05:10:03.105Z,1011.41
2017-04-14T05:10:43.602Z,1011.4
2017-04-14T05:11:24.123Z,1011.39
2017-04-14T05:12:04.646Z,1011.42
2017-04-14T05:12:45.159Z,1011.38
2017-04-14T05:13:25.698Z,1011.42
2017-04-14T05:14:06.239Z,1011.39
2017-04-14T05:14:46.760Z,1011.41
2017-04-14T05:15:27.279Z,1011.41
2017-04-14T05:16:07.780Z,1011.44
2017-04-14T05:16:48.301Z,1011.43
2017-04-14T05:17:28.806Z,1011.39
2017-04-14T05:18:09.347Z,1011.4
2017-04-14T05:18:49.855Z,1011.38
2017-04-14T05:19:30.387Z,1011.37
2017-04-14T05:20:10.901Z,1011.37
2017-04-14T05:20:51.448Z,1011.39
2017-04-14T05:21:31.976Z,1011.4
2017-04-14T05:22:12.488Z,1011.42
2017-04-14T05:22:53.006Z,1011.4
2017-04-14T05:23:33.559Z,1011.45
2017-04-14T05:24:14.049Z,1011.4
2017-04-14T05:24:54.566Z,1011.4
2017-04-14T05:25:35.098Z,1011.42
2017-04-14T05:26:15.642Z,1011.39
2017-04-14T05:26:56.188Z,1011.43
2017-04-14T05:27:36.729Z,1011.43
2017-04-14T05:28:17.264Z,1011.42
2017-04-14T05:28:57.785Z,1011.44
2017-04-14T05:29:38.319Z,1011.43
2017-04-14T05:30:18.828Z,1011.41
2017-04-14T05:30:59.343Z,1011.44
2017-04-14T05:31:39.869Z,1011.39
2017-04-14T05:32:20.407Z,1011.44
2017-04-14T05:33:00.921Z,1011.41
2017-04-14T05:33:41.437Z,1011.43
2017-04-14T05:34:21.957Z,1011.42
2017-04-14T05:35:02.497Z,1011.43
2017-04-14T05:35:43.037Z,1011.42
2017-04-14T05:36:23.562Z,1011.4
2017-04-14T05:37:04.118Z,1011.46
2017-04-14T05:37:44.629Z,1011.45
2017-04-14T05:38:25.160Z,1011.43
2017-04-14T05:39:05.710Z,1011.41
2017-04-14T05:39:46.259Z,1011.41
2017-04-14T05:40:26.804Z,1011.43
2017-04-14T05:41:07.315Z,1011.45
2017-04-14T05:41:47.905Z,1011.44
2017-04-14T05:42:28.365Z,1011.43
2017-04-14T05:43:08.894Z,1011.41
2017-04-14T05:43:49.434Z,1011.44
2017-04-14T05:44:29.960Z,1011.44
2017-04-14T05:45:10.561Z,1011.46
2017-04-14T05:45:51.091Z,1011.46
2017-04-14T05:46:31.612Z,1011.46
2017-04-14T05:47:12.122Z,1011.43
2017-04-14T05:47:52.667Z,1011.45
2017-04-14T05:48:33.190Z,1011.42
2017-04-14T05:49:13.715Z,1011.42
2017-04-14T05:49:54.257Z,1011.45
2017-04-14T05:50:34.781Z,1011.44
2017-04-14T05:51:15.318Z,1011.49
2017-04-14T05:51:56.636Z,1011.49
2017-04-14T05:52:37.152Z,1011.49
2017-04-14T05:53:17.853Z,1011.47
2017-04-14T05:53:58.652Z,1011.47
2017-04-14T05:54:39.298Z,1011.48
2017-04-14T05:55:19.828Z,1011.48
2017-04-14T05:56:00.350Z,1011.5
2017-04-14T05:56:40.862Z,1011.48
2017-04-14T05:57:21.453Z,1011.5
2017-04-14T05:58:01.999Z,1011.46
2017-04-14T05:58:42.579Z,1011.45
2017-04-14T05:59:23.102Z,1011.5
2017-04-14T06:00:03.643Z,1011.52
2017-04-14T06:00:44.181Z,1011.5
2017-04-14T06:01:24.704Z,1011.51
2017-04-14T06:02:05.221Z,1011.5
2017-04-14T06:02:45.785Z,1011.52
2017-04-14T06:03:26.334Z,1011.53
2017-04-14T06:04:06.847Z,1011.54
2017-04-14T06:04:47.360Z,1011.52
2017-04-14T06:05:27.994Z,1011.53
2017-04-14T06:06:08.495Z,1011.54
2017-04-14T06:06:49.019Z,1011.54
2017-04-14T06:07:29.539Z,1011.58
2017-04-14T06:08:10.074Z,1011.54
2017-04-14T06:08:50.584Z,1011.55
2017-04-14T06:09:31.107Z,1011.5
2017-04-14T06:10:11.639Z,1011.53
2017-04-14T06:10:52.213Z,1011.52
2017-04-14T06:11:32.742Z,1011.52
2017-04-14T06:12:13.263Z,1011.53
2017-04-14T06:12:53.786Z,1011.52
2017-04-14T06:13:34.366Z,1011.53
2017-04-14T06:14:14.879Z,1011.51
2017-04-14T06:14:55.413Z,1011.53
2017-04-14T06:15:35.952Z,1011.56
2017-04-14T06:16:16.474Z,1011.54
2017-04-14T06:16:57.015Z,1011.55
2017-04-14T06:17:37.544Z,1011.57
2017-04-14T06:18:18.067Z,1011.56
2017-04-14T06:18:58.595Z,1011.56
2017-04-14T06:19:39.202Z,1011.53
2017-04-14T06:20:19.716Z,1011.58
2017-04-14T06:21:00.246Z,1011.55
2017-04-14T06:21:40.766Z,1011.55
2017-04-14T06:22:21.397Z,1011.56
2017-04-14T06:23:01.900Z,1011.56
2017-04-14T06:23:42.456Z,1011.54
2017-04-14T06:24:23.009Z,1011.54
2017-04-14T06:25:03.511Z,1011.5
2017-04-14T06:25:44.027Z,1011.54
2017-04-14T06:26:24.567Z,1011.53
2017-04-14T06:27:05.137Z,1011.5
2017-04-14T06:27:45.696Z,1011.52
2017-04-14T06:28:26.307Z,1011.53
2017-04-14T06:29:06.830Z,1011.52
2017-04-14T06:29:47.354Z,1011.54
2017-04-14T06:30:27.917Z,1011.52
2017-04-14T06:31:08.441Z,1011.52
2017-04-14T06:31:48.992Z,1011.5
2017-04-14T06:32:29.531Z,1011.53
2017-04-14T06:33:10.085Z,1011.53
2017-04-14T06:33:50.721Z,1011.55
2017-04-14T06:34:31.310Z,1011.56
2017-04-14T06:35:11.866Z,1011.59
2017-04-14T06:35:52.521Z,1011.57
2017-04-14T06:36:33.095Z,1011.58
2017-04-14T06:37:13.775Z,1011.59
2017-04-14T06:37:54.344Z,1011.59
2017-04-14T06:38:34.891Z,1011.56
2017-04-14T06:39:15.471Z,1011.57
2017-04-14T06:39:56.082Z,1011.6
2017-04-14T06:40:36.640Z,1011.59
2017-04-14T06:41:17.240Z,1011.59
2017-04-14T06:41:58.034Z,1011.62
2017-04-14T06:42:38.644Z,1011.58
2017-04-14T06:43:19.232Z,1011.61
2017-04-14T06:43:59.930Z,1011.59
2017-04-14T06:44:40.472Z,1011.6
2017-04-14T06:45:21.009Z,1011.57
2017-04-14T06:46:01.552Z,1011.58
2017-04-14T06:46:42.129Z,1011.59
2017-04-14T06:47:22.653Z,1011.59
2017-04-14T06:48:03.173Z,1011.58
2017-04-14T06:48:43.751Z,1011.6
2017-04-14T06:49:24.357Z,1011.53
2017-04-14T06:50:05.149Z,1011.57
2017-04-14T06:50:45.843Z,1011.62
2017-04-14T06:51:26.372Z,1011.6
2017-04-14T06:52:06.895Z,1011.57
2017-04-14T06:52:47.459Z,1011.58
2017-04-14T06:53:28.262Z,1011.58
2017-04-14T06:54:08.939Z,1011.59
2017-04-14T06:54:49.609Z,1011.61
2017-04-14T06:55:30.233Z,1011.61
2017-04-14T06:56:10.829Z,1011.63
2017-04-14T06:56:51.487Z,1011.68
2017-04-14T06:57:32.003Z,1011.62
2017-04-14T06:58:12.567Z,1011.64
2017-04-14T06:58:53.155Z,1011.65
2017-04-14T06:59:33.735Z,1011.64
2017-04-14T07:00:14.220Z,1011.7
2017-04-14T07:00:54.851Z,1011.62
2017-04-14T07:01:35.481Z,1011.64
2017-04-14T07:02:15.999Z,1011.64
2017-04-14T07:02:56.618Z,1011.66
2017-04-14T07:03:37.301Z,1011.62
2017-04-14T07:04:17.978Z,1011.66
2017-04-14T07:04:58.542Z,1011.65
2017-04-14T07:05:39.064Z,1011.64
2017-04-14T07:06:19.606Z,1011.64
2017-04-14T07:07:00.165Z,1011.65
2017-04-14T07:07:40.754Z,1011.67
2017-04-14T07:08:21.386Z,1011.66
2017-04-14T07:09:02.089Z,1011.61
2017-04-14T07:09:42.615Z,1011.64
2017-04-14T07:10:23.179Z,1011.65
2017-04-14T07:11:03.881Z,1011.63
2017-04-14T07:11:44.415Z,1011.65
2017-04-14T07:14:04.013Z,1011.63
2017-04-14T07:14:44.559Z,1011.63
2017-04-14T07:15:25.129Z,1011.61
2017-04-14T07:16:05.658Z,1011.63
2017-04-14T07:16:46.175Z,1011.61
2017-04-14T07:17:26.784Z,1011.61
2017-04-14T07:18:07.370Z,1011.6
2017-04-14T07:18:47.930Z,1011.6
2017-04-14T07:19:28.521Z,1011.64
2017-04-14T07:20:09.038Z,1011.64
2017-04-14T07:20:49.630Z,1011.64
2017-04-14T07:21:30.242Z,1011.63
2017-04-14T07:22:10.778Z,1011.64
2017-04-14T07:22:51.355Z,1011.64
2017-04-14T07:23:31.924Z,1011.66
2017-04-14T07:24:12.548Z,1011.64
2017-04-14T07:24:53.089Z,1011.6
2017-04-14T07:25:33.782Z,1011.57
2017-04-14T07:26:14.263Z,1011.62
2017-04-14T07:26:54.826Z,1011.6
2017-04-14T07:27:36.249Z,1011.6
2017-04-14T07:28:16.826Z,1011.61
2017-04-14T07:28:57.451Z,1011.57
2017-04-14T07:29:38.066Z,1011.59
2017-04-14T07:30:18.626Z,1011.62
2017-04-14T07:30:59.244Z,1011.61
2017-04-14T07:31:39.807Z,1011.61
2017-04-14T07:32:20.417Z,1011.62
2017-04-14T07:33:00.956Z,1011.63
2017-04-14T07:33:41.475Z,1011.66
2017-04-14T07:34:22.060Z,1011.58
2017-04-14T07:35:02.789Z,1011.61
2017-04-14T07:35:43.489Z,1011.57
2017-04-14T07:36:24.024Z,1011.59
2017-04-14T07:37:04.549Z,1011.59
2017-04-14T07:37:45.123Z,1011.59
2017-04-14T07:38:25.790Z,1011.57
2017-04-14T07:39:06.340Z,1011.55
2017-04-14T07:39:46.994Z,1011.57
2017-04-14T07:40:27.630Z,1011.54
2017-04-14T07:41:08.202Z,1011.53
2017-04-14T07:41:48.770Z,1011.54
2017-04-14T07:42:29.326Z,1011.54
2017-04-14T07:43:10.046Z,1011.54
2017-04-14T07:43:50.569Z,1011.53
2017-04-14T07:44:31.152Z,1011.57
2017-04-14T07:45:11.765Z,1011.52
2017-04-14T07:45:52.370Z,1011.53
2017-04-14T07:46:32.911Z,1011.53
2017-04-14T07:47:13.484Z,1011.5
2017-04-14T07:47:54.012Z,1011.52
2017-04-14T07:48:34.609Z,1011.51
2017-04-14T07:49:15.159Z,1011.51
2017-04-14T07:49:55.716Z,1011.54
2017-04-14T07:50:36.270Z,1011.56
2017-04-14T07:51:16.966Z,1011.53
2017-04-14T07:51:57.667Z,1011.55
2017-04-14T07:52:38.502Z,1011.56
2017-04-14T07:53:20.138Z,1011.55
2017-04-14T07:54:02.528Z,1011.56
2017-04-14T07:54:43.316Z,1011.58
2017-04-14T07:55:23.962Z,1011.56
2017-04-14T07:56:04.691Z,1011.53
2017-04-14T07:56:45.395Z,1011.53
2017-04-14T07:57:26.161Z,1011.54
2017-04-14T07:58:07.002Z,1011.56
2017-04-14T07:58:47.694Z,1011.52
2017-04-14T07:59:28.431Z,1011.58
2017-04-14T08:00:09.285Z,1011.51
2017-04-14T08:00:50.023Z,1011.56
2017-04-14T08:01:30.754Z,1011.51
2017-04-14T08:02:11.371Z,1011.54
2017-04-14T08:02:52.170Z,1011.53
2017-04-14T08:03:32.826Z,1011.56
2017-04-14T08:04:13.778Z,1011.57
2017-04-14T08:04:54.477Z,1011.57
2017-04-14T08:05:35.110Z,1011.57
2017-04-14T08:06:15.670Z,1011.57
2017-04-14T08:06:56.293Z,1011.54
2017-04-14T08:07:36.896Z,1011.54
2017-04-14T08:08:17.679Z,1011.52
2017-04-14T08:08:58.289Z,1011.51
2017-04-14T08:09:39.014Z,1011.51
2017-04-14T08:10:19.685Z,1011.52
2017-04-14T08:11:00.266Z,1011.51
2017-04-14T08:11:40.886Z,1011.52
2017-04-14T08:12:21.321Z,1011.55
2017-04-14T08:13:01.962Z,1011.52
2017-04-14T08:13:42.622Z,1011.51
2017-04-14T08:14:23.303Z,1011.49
2017-04-14T08:15:03.954Z,1011.51
2017-04-14T08:15:44.757Z,1011.52